ADDS METAR Data INFO
IDs: Format: Raw Decoded Include TAF

Data at: 1131 UTC 29 May 2017

METAR for:PACD (Cold Bay Arpt, AK, US)
Text:PACD 291053Z AUTO 26003KT 10SM CLR 01/00 A2979 RMK AO2 SLP090 T00060000 TSNO
Temperature: 0.6°C ( 33°F)
Dewpoint: 0.0°C ( 32°F) [RH = 96%]
Pressure (altimeter):29.79 inches Hg (1008.9 mb) [Sea level pressure: 1009.0 mb]
Winds:from the W (260 degrees) at 3 MPH (3 knots; 1.5 m/s)
Visibility:10 or more sm (16+ km)
Ceiling:at least 12,000 feet AGL
Clouds:sky clear below 12,000 feet AGL
QC Flag:automated observation with no human augmentation
Text:PACD 290953Z AUTO 26004KT 10SM CLR 01/00 A2979 RMK AO2 SLP090 T00110000 TSNO
Temperature: 1.1°C ( 34°F)
Dewpoint: 0.0°C ( 32°F) [RH = 92%]
Pressure (altimeter):29.79 inches Hg (1008.9 mb) [Sea level pressure: 1009.0 mb]
Winds:from the W (260 degrees) at 5 MPH (4 knots; 2.1 m/s)
Visibility:10 or more sm (16+ km)
Ceiling:at least 12,000 feet AGL
Clouds:sky clear below 12,000 feet AGL
QC Flag:automated observation with no human augmentation
Text:PACD 290853Z AUTO VRB03KT 10SM CLR 03/02 A2979 RMK AO2 SLP090 T00330022 401110006 51007 TSNO
Temperature: 3.3°C ( 38°F)
Dewpoint: 2.2°C ( 36°F) [RH = 92%]
Pressure (altimeter):29.79 inches Hg (1008.9 mb) [Sea level pressure: 1009.0 mb]
Winds:variable direction winds at 3 MPH (3 knots; 1.5 m/s)
Visibility:10 or more sm (16+ km)
Ceiling:at least 12,000 feet AGL
Clouds:sky clear below 12,000 feet AGL
QC Flag:automated observation with no human augmentation
Text:PACD 290753Z AUTO 00000KT 10SM CLR 03/01 A2979 RMK AO2 SLP090 T00330011 TSNO
Temperature: 3.3°C ( 38°F)
Dewpoint: 1.1°C ( 34°F) [RH = 85%]
Pressure (altimeter):29.79 inches Hg (1008.9 mb) [Sea level pressure: 1009.0 mb]
Winds:calm
Visibility:10 or more sm (16+ km)
Ceiling:at least 12,000 feet AGL
Clouds:sky clear below 12,000 feet AGL
QC Flag:automated observation with no human augmentation
Text:PACD 290653Z AUTO 35005KT 10SM SCT043 04/02 A2978 RMK AO2 SLP087 T00440017 TSNO
Temperature: 4.4°C ( 40°F)
Dewpoint: 1.7°C ( 35°F) [RH = 83%]
Pressure (altimeter):29.78 inches Hg (1008.5 mb) [Sea level pressure: 1008.7 mb]
Winds:from the N (350 degrees) at 6 MPH (5 knots; 2.6 m/s)
Visibility:10 or more sm (16+ km)
Ceiling:at least 12,000 feet AGL
Clouds: scattered clouds at 4300 feet AGL
QC Flag:automated observation with no human augmentation
Text:PACD 290553Z AUTO 01009KT 10SM CLR 06/02 A2977 RMK AO2 SLP083 60000 T00610022 10111 20061 52004 TSNO
Temperature: 6.1°C ( 43°F)
Dewpoint: 2.2°C ( 36°F) [RH = 76%]
Pressure (altimeter):29.77 inches Hg (1008.2 mb) [Sea level pressure: 1008.3 mb]
Winds:from the N (10 degrees) at 10 MPH (9 knots; 4.6 m/s)
Visibility:10 or more sm (16+ km)
Ceiling:at least 12,000 feet AGL
Clouds:sky clear below 12,000 feet AGL
QC Flag:automated observation with no human augmentation

TAF for:PACD (Cold Bay Arpt, AK, US) issued at 0539 UTC 29 May 2017
Text:PACD 290539Z 2906/3006 36015KT P6SM SCT030 OVC040
Forecast period:0600 to 1200 UTC 29 May 2017
Forecast type:FROM: standard forecast or significant change
Winds:from the N (360 degrees) at 17 MPH (15 knots; 7.7 m/s)
Visibility:6 or more sm (10+ km)
Ceiling:4000 feet AGL
Clouds: scattered clouds at 3000 feet AGL, overcast cloud deck at 4000 feet AGL
Text:TEMPO 2906/2908 BKN025
Forecast period:0600 to 0800 UTC 29 May 2017
Forecast type:TEMPORARY: The following changes expected for less than half the time period
Ceiling:2500 feet AGL
Clouds: broken clouds at 2500 feet AGL
Text:FM291200 VRB03KT 2SM BR BKN005 OVC012
Forecast period:1200 to 1900 UTC 29 May 2017
Forecast type:FROM: standard forecast or significant change
Winds:variable direction winds at 3 MPH (3 knots; 1.5 m/s)
Visibility: 2.00 sm ( 3.22 km)
Ceiling:500 feet AGL
Clouds: broken clouds at 500 feet AGL, overcast cloud deck at 1200 feet AGL
Weather:BR (mist)
Text:FM291900 12005KT P6SM FEW005 BKN035
Forecast period:1900 UTC 29 May 2017 to 0600 UTC 30 May 2017
Forecast type:FROM: standard forecast or significant change
Winds:from the ESE (120 degrees) at 6 MPH (5 knots; 2.6 m/s)
Visibility:6 or more sm (10+ km)
Ceiling:3500 feet AGL
Clouds: few clouds at 500 feet AGL, broken clouds at 3500 feet AGL


Page loaded:  11:31 UTC  |   04:31 AM Pacific  |   05:31 AM Mountain  |   06:31 AM Central  |   07:31 AM Eastern

 

ADVISORIES

FORECASTS

FORECASTS

OBSERVATIONS

USER TOOLS

ABOUT US